createdAt,value
2023-01-20T00:00:18.073Z,-1.91
2023-01-20T00:02:48.795Z,-1.64
2023-01-20T00:05:18.179Z,-1.49
2023-01-20T00:07:47.335Z,-1.33
2023-01-20T00:10:16.920Z,-1.27
2023-01-20T00:12:46.129Z,-1.32
2023-01-20T00:15:15.889Z,-1.31
2023-01-20T00:17:45.167Z,-1.20
2023-01-20T00:20:16.310Z,-1.20
2023-01-20T00:22:45.744Z,-1.06
2023-01-20T00:25:15.939Z,-1.04
2023-01-20T00:27:46.744Z,-1.08
2023-01-20T00:30:16.557Z,-1.14
2023-01-20T00:32:45.862Z,-1.18
2023-01-20T00:35:16.802Z,-1.22
2023-01-20T00:37:45.982Z,-1.25
2023-01-20T00:40:15.645Z,-1.23
2023-01-20T00:42:44.933Z,-1.23
2023-01-20T00:45:14.240Z,-1.27
2023-01-20T00:47:43.686Z,-1.26
2023-01-20T00:50:14.875Z,-1.25
2023-01-20T00:52:45.650Z,-1.24
2023-01-20T00:55:15.405Z,-1.32
2023-01-20T00:57:44.736Z,-1.30
2023-01-20T01:00:14.984Z,-1.39
2023-01-20T01:02:46.309Z,-1.36
2023-01-20T01:05:15.785Z,-1.34
2023-01-20T01:07:46.670Z,-1.28
2023-01-20T01:10:16.256Z,-1.37
2023-01-20T01:12:45.470Z,-1.46
2023-01-20T01:15:15.460Z,-1.39
2023-01-20T01:17:45.172Z,-1.35
2023-01-20T01:20:15.365Z,-1.32
2023-01-20T01:22:45.916Z,-1.26
2023-01-20T01:25:15.487Z,-1.41
2023-01-20T01:27:45.471Z,-1.47
2023-01-20T01:30:15.259Z,-1.47
2023-01-20T01:32:44.528Z,-1.43
2023-01-20T01:35:13.975Z,-1.37
2023-01-20T01:37:43.304Z,-1.37
2023-01-20T01:40:14.386Z,-1.40
2023-01-20T01:42:43.675Z,-1.35
2023-01-20T01:45:34.250Z,-1.37
2023-01-20T01:48:10.301Z,-1.31
2023-01-20T01:50:45.964Z,-1.40
2023-01-20T01:53:16.558Z,-1.46
2023-01-20T01:55:52.509Z,-1.58
2023-01-20T01:58:28.345Z,-1.65
2023-01-20T02:00:57.538Z,-1.68
2023-01-20T02:03:34.993Z,-1.72
2023-01-20T02:06:05.847Z,-1.78
2023-01-20T02:08:36.173Z,-1.79
2023-01-20T02:11:09.962Z,-1.76
2023-01-20T02:13:39.152Z,-1.81
2023-01-20T02:16:16.719Z,-1.78
2023-01-20T02:19:02.987Z,-1.52
2023-01-20T02:22:09.966Z,-1.90
2023-01-20T02:25:25.185Z,-1.93
2023-01-20T02:28:45.088Z,-1.97
2023-01-20T02:32:02.610Z,-2.05
2023-01-20T02:34:37.987Z,-2.08
2023-01-20T02:37:15.660Z,-2.19
2023-01-20T02:39:56.755Z,-2.35
2023-01-20T02:42:33.668Z,-2.30
2023-01-20T02:45:10.273Z,-2.20
2023-01-20T02:47:50.762Z,-2.18
2023-01-20T02:50:30.274Z,-2.18
2023-01-20T02:53:02.650Z,-2.17
2023-01-20T02:55:39.135Z,-2.02
2023-01-20T02:58:13.282Z,-2.01
2023-01-20T03:00:49.526Z,-1.97
2023-01-20T03:03:25.513Z,-1.92
2023-01-20T03:05:59.931Z,-1.97
2023-01-20T03:08:33.043Z,-1.67
2023-01-20T03:11:07.275Z,-1.74
2023-01-20T03:13:42.992Z,-1.78
2023-01-20T03:16:15.590Z,-1.91
2023-01-20T03:18:45.108Z,-1.96
2023-01-20T03:21:15.806Z,-2.16
2023-01-20T03:23:48.248Z,-2.19
2023-01-20T03:26:20.238Z,-2.15
2023-01-20T03:28:50.616Z,-2.25
2023-01-20T03:31:23.461Z,-2.21
2023-01-20T03:33:55.413Z,-2.27
2023-01-20T03:36:29.213Z,-2.11
2023-01-20T03:39:01.840Z,-2.26
2023-01-20T03:41:41.735Z,-2.42
2023-01-20T03:44:20.475Z,-2.62
2023-01-20T03:46:56.920Z,-2.72
2023-01-20T03:49:35.092Z,-2.82
2023-01-20T03:52:12.494Z,-2.89
2023-01-20T03:54:49.852Z,-2.98
2023-01-20T03:57:23.555Z,-2.96
2023-01-20T03:59:54.787Z,-3.07
2023-01-20T04:02:25.194Z,-3.10
2023-01-20T04:04:55.840Z,-3.14
2023-01-20T04:07:27.862Z,-2.96
2023-01-20T04:10:04.023Z,-3.05
2023-01-20T04:12:34.518Z,-2.88
2023-01-20T04:15:03.779Z,-2.95
2023-01-20T04:17:35.171Z,-2.99
2023-01-20T04:20:10.517Z,-3.04
2023-01-20T04:22:50.375Z,-3.06
2023-01-20T04:25:30.979Z,-3.03
2023-01-20T04:28:00.153Z,-3.05
2023-01-20T04:30:29.648Z,-3.07
2023-01-20T04:32:58.892Z,-3.11
2023-01-20T04:35:28.225Z,-3.14
2023-01-20T04:37:59.220Z,-3.19
2023-01-20T04:40:28.568Z,-3.20
2023-01-20T04:42:57.759Z,-3.25
2023-01-20T04:45:27.161Z,-3.31
2023-01-20T04:47:56.282Z,-3.32
2023-01-20T04:50:25.381Z,-3.14
2023-01-20T04:52:56.713Z,-3.07
2023-01-20T04:55:27.772Z,-2.91
2023-01-20T04:57:56.883Z,-2.96
2023-01-20T05:00:26.636Z,-2.95
2023-01-20T05:02:59.195Z,-3.00
2023-01-20T05:05:28.389Z,-3.08
2023-01-20T05:07:59.523Z,-3.21
2023-01-20T05:10:30.106Z,-3.31
2023-01-20T05:12:59.257Z,-3.31
2023-01-20T05:15:29.303Z,-3.33
2023-01-20T05:17:58.549Z,-3.38
2023-01-20T05:20:27.633Z,-3.21
2023-01-20T05:22:56.725Z,-3.25
2023-01-20T05:25:25.923Z,-3.11
2023-01-20T05:27:56.498Z,-2.86
2023-01-20T05:30:25.631Z,-2.96
2023-01-20T05:32:54.882Z,-3.02
2023-01-20T05:35:24.126Z,-3.12
2023-01-20T05:37:57.089Z,-3.00
2023-01-20T05:40:26.140Z,-2.97
2023-01-20T05:43:00.486Z,-3.06
2023-01-20T05:45:30.243Z,-3.05
2023-01-20T05:48:00.600Z,-3.06
2023-01-20T05:50:30.904Z,-2.97
2023-01-20T05:53:00.470Z,-2.79
2023-01-20T05:55:29.551Z,-2.74
2023-01-20T05:58:05.208Z,-2.87
2023-01-20T06:00:34.458Z,-2.79
2023-01-20T06:03:03.799Z,-2.91
2023-01-20T06:05:35.955Z,-2.82
2023-01-20T06:08:05.206Z,-2.85
2023-01-20T06:10:35.175Z,-2.83
2023-01-20T06:13:05.750Z,-2.66
2023-01-20T06:15:34.859Z,-2.43
2023-01-20T06:18:04.258Z,-2.48
2023-01-20T06:20:33.463Z,-2.50
2023-01-20T06:23:02.601Z,-2.51
2023-01-20T06:25:31.736Z,-2.61
2023-01-20T06:28:01.800Z,-2.57
2023-01-20T06:30:32.757Z,-2.44
2023-01-20T06:33:02.063Z,-2.56
2023-01-20T06:35:31.232Z,-2.59
2023-01-20T06:38:00.301Z,-2.54
2023-01-20T06:40:29.603Z,-2.57
2023-01-20T06:42:59.535Z,-2.37
2023-01-20T06:45:32.509Z,-2.33
2023-01-20T06:48:03.181Z,-2.39
2023-01-20T06:50:32.941Z,-2.60
2023-01-20T06:53:02.171Z,-2.63
2023-01-20T06:55:31.686Z,-2.66
2023-01-20T06:58:00.888Z,-2.69
2023-01-20T07:00:32.579Z,-2.48
2023-01-20T07:03:03.572Z,-2.50
2023-01-20T07:05:33.012Z,-2.61
2023-01-20T07:08:02.126Z,-2.73
2023-01-20T07:10:31.227Z,-2.59
2023-01-20T07:13:00.371Z,-2.58
2023-01-20T07:15:29.426Z,-2.52
2023-01-20T07:17:59.799Z,-2.53
2023-01-20T07:20:30.340Z,-2.49
2023-01-20T07:23:01.080Z,-2.46
2023-01-20T07:25:30.139Z,-2.39
2023-01-20T07:27:59.415Z,-2.46
2023-01-20T07:30:28.777Z,-2.31
2023-01-20T07:32:57.937Z,-2.44
2023-01-20T07:35:27.119Z,-2.46
2023-01-20T07:37:57.568Z,-2.42
2023-01-20T07:40:26.633Z,-2.39
2023-01-20T07:42:55.823Z,-2.41
2023-01-20T07:45:24.997Z,-2.34
2023-01-20T07:47:57.272Z,-2.25
2023-01-20T07:50:26.400Z,-2.15
2023-01-20T07:52:55.622Z,-2.08
2023-01-20T07:55:26.139Z,-1.98
2023-01-20T07:57:56.174Z,-1.84
2023-01-20T08:00:25.766Z,-1.83
2023-01-20T08:02:54.991Z,-1.74
2023-01-20T08:05:24.147Z,-1.67
2023-01-20T08:07:53.749Z,-1.56
2023-01-20T08:10:23.120Z,-1.48
2023-01-20T08:12:53.680Z,-1.39
2023-01-20T08:15:22.760Z,-1.26
2023-01-20T08:17:55.185Z,-1.16
2023-01-20T08:20:24.500Z,-1.11
2023-01-20T08:22:53.824Z,-1.00
2023-01-20T08:25:22.919Z,-0.86
2023-01-20T08:27:53.351Z,-0.75
2023-01-20T08:30:22.687Z,-0.65
2023-01-20T08:32:52.119Z,-0.62
2023-01-20T08:35:24.065Z,-0.47
2023-01-20T08:37:53.198Z,-0.40
2023-01-20T08:40:22.523Z,-0.27
2023-01-20T08:42:53.133Z,-0.22
2023-01-20T08:45:22.499Z,-0.24
2023-01-20T08:47:51.876Z,-0.18
2023-01-20T08:50:22.738Z,-0.09
2023-01-20T08:52:51.823Z,0.05
2023-01-20T08:55:21.141Z,0.15
2023-01-20T08:57:50.423Z,0.16
2023-01-20T09:00:22.396Z,0.22
2023-01-20T09:02:51.544Z,0.19
2023-01-20T09:05:22.497Z,0.27
2023-01-20T09:07:51.644Z,0.43
2023-01-20T09:10:21.223Z,0.49
2023-01-20T09:12:50.385Z,0.58
2023-01-20T09:15:21.141Z,0.46
2023-01-20T09:17:50.283Z,0.49
2023-01-20T09:20:19.882Z,0.61
2023-01-20T09:22:48.982Z,0.74
2023-01-20T09:25:19.238Z,0.80
2023-01-20T09:27:48.355Z,0.80
2023-01-20T09:30:18.669Z,0.85
2023-01-20T09:32:53.214Z,0.90
2023-01-20T09:35:22.335Z,0.97
2023-01-20T09:38:08.951Z,0.95
2023-01-20T09:41:07.568Z,1.01
2023-01-20T09:43:57.894Z,0.96
2023-01-20T09:47:10.129Z,1.08
2023-01-20T09:50:09.180Z,1.15
2023-01-20T09:52:57.060Z,1.20
2023-01-20T09:55:31.843Z,1.32
2023-01-20T09:58:13.002Z,1.42
2023-01-20T10:00:47.978Z,1.46
2023-01-20T10:03:25.542Z,1.59
2023-01-20T10:06:00.888Z,1.66
2023-01-20T10:08:35.943Z,1.81
2023-01-20T10:11:11.326Z,1.82
2023-01-20T10:13:47.676Z,1.83
2023-01-20T10:16:28.710Z,1.93
2023-01-20T10:19:04.086Z,2.01
2023-01-20T10:21:41.861Z,2.04
2023-01-20T10:24:16.384Z,1.97
2023-01-20T10:26:52.035Z,2.05
2023-01-20T10:29:29.553Z,2.13
2023-01-20T10:32:02.476Z,2.15
2023-01-20T10:34:43.146Z,2.17
2023-01-20T10:37:15.412Z,2.26
2023-01-20T10:39:51.051Z,2.29
2023-01-20T10:42:21.753Z,2.25
2023-01-20T10:44:53.442Z,2.27
2023-01-20T10:47:44.982Z,2.34
2023-01-20T10:50:47.539Z,2.25
2023-01-20T10:53:43.615Z,1.96
2023-01-20T10:56:32.989Z,2.10
2023-01-20T10:59:10.475Z,2.31
2023-01-20T11:01:40.764Z,2.49
2023-01-20T11:04:20.268Z,2.64
2023-01-20T11:06:57.569Z,2.63
2023-01-20T11:09:37.650Z,2.74
2023-01-20T11:12:13.807Z,2.78
2023-01-20T11:14:43.951Z,2.86
2023-01-20T11:17:17.377Z,2.96
2023-01-20T11:19:51.596Z,2.92
2023-01-20T11:22:30.577Z,3.00
2023-01-20T11:25:04.174Z,2.98
2023-01-20T11:27:45.058Z,2.97
2023-01-20T11:30:27.378Z,2.93
2023-01-20T11:33:18.602Z,2.85
2023-01-20T11:36:02.373Z,2.92
2023-01-20T11:38:34.145Z,3.03
2023-01-20T11:41:05.281Z,3.09
2023-01-20T11:43:38.646Z,2.89
2023-01-20T11:46:16.361Z,2.84
2023-01-20T11:48:45.969Z,2.69
2023-01-20T11:51:26.032Z,2.66
2023-01-20T11:54:09.475Z,2.57
2023-01-20T11:56:44.509Z,2.58
2023-01-20T11:59:28.981Z,2.57
2023-01-20T12:02:21.102Z,2.68
2023-01-20T12:05:09.554Z,2.79
2023-01-20T12:07:44.237Z,2.93
2023-01-20T12:10:18.766Z,3.03
2023-01-20T12:12:54.199Z,3.01
2023-01-20T12:15:26.638Z,3.04
2023-01-20T12:18:00.994Z,3.02
2023-01-20T12:20:53.532Z,2.99
2023-01-20T12:23:39.307Z,3.01
2023-01-20T12:26:11.907Z,2.91
2023-01-20T12:28:58.654Z,2.65
2023-01-20T12:31:28.411Z,2.57
2023-01-20T12:34:03.915Z,2.57
2023-01-20T12:36:59.236Z,2.41
2023-01-20T12:39:40.847Z,2.38
2023-01-20T12:42:56.435Z,2.44
2023-01-20T12:45:46.548Z,2.16
2023-01-20T12:48:33.483Z,2.19
2023-01-20T12:51:20.899Z,2.30
2023-01-20T12:54:27.137Z,2.32
2023-01-20T12:57:08.952Z,2.42
2023-01-20T12:59:48.635Z,2.50
2023-01-20T13:02:53.614Z,2.44
2023-01-20T13:05:49.193Z,2.47
2023-01-20T13:08:24.581Z,2.45
2023-01-20T13:11:08.558Z,2.56
2023-01-20T13:13:56.886Z,2.50
2023-01-20T13:16:40.421Z,2.48
2023-01-20T13:19:17.752Z,2.47
2023-01-20T13:21:56.561Z,2.57
2023-01-20T13:24:33.365Z,2.62
2023-01-20T13:27:04.073Z,2.67
2023-01-20T13:29:53.794Z,2.69
2023-01-20T13:32:45.500Z,2.79
2023-01-20T13:35:49.857Z,2.79
2023-01-20T13:38:23.280Z,2.75
2023-01-20T13:40:56.176Z,2.69
2023-01-20T13:43:49.277Z,2.69
2023-01-20T13:46:50.265Z,2.57
2023-01-20T13:49:50.354Z,2.49
2023-01-20T13:53:16.968Z,2.41
2023-01-20T13:56:02.817Z,2.38
2023-01-20T13:58:34.617Z,2.31
2023-01-20T14:01:06.332Z,2.30
2023-01-20T14:03:39.471Z,2.19
2023-01-20T14:06:24.100Z,2.13
2023-01-20T14:08:56.631Z,2.00
2023-01-20T14:11:29.321Z,1.85
2023-01-20T14:14:01.907Z,1.81
2023-01-20T14:16:40.951Z,1.76
2023-01-20T14:19:23.435Z,1.80
2023-01-20T14:21:56.260Z,1.80
2023-01-20T14:24:32.473Z,1.67
2023-01-20T14:27:11.191Z,1.59
2023-01-20T14:29:42.135Z,1.49
2023-01-20T14:32:23.555Z,1.47
2023-01-20T14:34:56.687Z,1.48
2023-01-20T14:37:29.928Z,1.44
2023-01-20T14:40:07.978Z,1.53
2023-01-20T14:42:38.832Z,1.49
2023-01-20T14:45:20.302Z,1.48
2023-01-20T14:47:51.438Z,1.60
2023-01-20T14:50:22.972Z,1.56
2023-01-20T14:52:52.294Z,1.54
2023-01-20T14:55:35.693Z,1.48
2023-01-20T14:58:09.833Z,1.57
2023-01-20T15:00:44.751Z,1.55
2023-01-20T15:03:21.840Z,1.53
2023-01-20T15:05:58.219Z,1.45
2023-01-20T15:08:29.948Z,1.50
2023-01-20T15:11:26.037Z,1.40
2023-01-20T15:14:13.587Z,1.32
2023-01-20T15:16:50.301Z,1.36
2023-01-20T15:19:46.274Z,1.37
2023-01-20T15:22:23.260Z,1.35
2023-01-20T15:24:56.287Z,1.20
2023-01-20T15:27:33.534Z,1.18
2023-01-20T15:30:21.178Z,1.15
2023-01-20T15:32:51.203Z,1.20
2023-01-20T15:35:25.934Z,1.15
2023-01-20T15:37:55.760Z,1.00
2023-01-20T15:40:26.975Z,1.07
2023-01-20T15:42:57.653Z,0.99
2023-01-20T15:45:26.961Z,0.93
2023-01-20T15:47:56.501Z,0.83
2023-01-20T15:50:26.998Z,0.89
2023-01-20T15:52:56.692Z,0.80
2023-01-20T15:55:29.007Z,0.69
2023-01-20T15:57:59.636Z,0.58
2023-01-20T16:00:30.816Z,0.62
2023-01-20T16:03:00.148Z,0.56
2023-01-20T16:05:29.606Z,0.60
2023-01-20T16:08:02.655Z,0.65
2023-01-20T16:10:31.893Z,0.71
2023-01-20T16:13:02.613Z,0.78
2023-01-20T16:15:31.884Z,0.75
2023-01-20T16:18:01.012Z,0.83
2023-01-20T16:20:30.240Z,0.84
2023-01-20T16:22:59.373Z,0.95
2023-01-20T16:25:29.012Z,0.81
2023-01-20T16:27:59.314Z,0.87
2023-01-20T16:30:30.176Z,0.82
2023-01-20T16:32:59.301Z,0.79
2023-01-20T16:35:28.643Z,0.77
2023-01-20T16:37:57.744Z,0.82
2023-01-20T16:40:26.813Z,0.89
2023-01-20T16:42:56.964Z,0.95
2023-01-20T16:45:30.203Z,0.87
2023-01-20T16:47:59.417Z,0.77
2023-01-20T16:50:28.633Z,0.66
2023-01-20T16:52:58.343Z,0.77
2023-01-20T16:55:28.032Z,0.86
2023-01-20T16:57:57.399Z,0.96
2023-01-20T17:00:26.566Z,0.85
2023-01-20T17:02:57.210Z,0.81
2023-01-20T17:05:28.530Z,1.04
2023-01-20T17:07:59.743Z,1.01
2023-01-20T17:10:32.335Z,0.94
2023-01-20T17:13:01.876Z,0.88
2023-01-20T17:15:30.963Z,0.80
2023-01-20T17:18:01.849Z,0.61
2023-01-20T17:20:32.501Z,0.72
2023-01-20T17:23:01.747Z,0.80
2023-01-20T17:25:31.011Z,0.88
2023-01-20T17:28:00.264Z,0.90
2023-01-20T17:30:29.741Z,0.71
2023-01-20T17:32:58.962Z,0.89
2023-01-20T17:35:29.860Z,0.89
2023-01-20T17:37:59.691Z,0.79
2023-01-20T17:40:29.169Z,0.76
2023-01-20T17:42:58.483Z,0.63
2023-01-20T17:45:29.423Z,0.62
2023-01-20T17:47:58.569Z,0.71
2023-01-20T17:50:30.867Z,0.54
2023-01-20T17:53:01.640Z,0.37
2023-01-20T17:55:33.951Z,0.49
2023-01-20T17:58:03.720Z,0.53
2023-01-20T18:00:33.034Z,0.33
2023-01-20T18:03:02.263Z,0.30
2023-01-20T18:05:35.345Z,0.45
2023-01-20T18:08:04.954Z,0.52
2023-01-20T18:10:34.398Z,0.68
2023-01-20T18:13:03.619Z,0.56
2023-01-20T18:15:33.171Z,0.58
2023-01-20T18:18:02.610Z,0.62
2023-01-20T18:20:33.787Z,0.60
2023-01-20T18:23:03.333Z,0.51
2023-01-20T18:25:32.587Z,0.53
2023-01-20T18:28:01.955Z,0.54
2023-01-20T18:30:32.631Z,0.81
2023-01-20T18:33:02.269Z,0.76
2023-01-20T18:35:35.649Z,0.82
2023-01-20T18:38:05.739Z,0.67
2023-01-20T18:40:35.307Z,0.78
2023-01-20T18:43:04.845Z,0.90
2023-01-20T18:45:34.252Z,0.80
2023-01-20T18:48:03.873Z,0.80
2023-01-20T18:50:34.853Z,0.97
2023-01-20T18:53:04.145Z,1.16
2023-01-20T18:55:34.430Z,1.01
2023-01-20T18:58:03.961Z,0.93
2023-01-20T19:00:33.281Z,0.84
2023-01-20T19:03:02.998Z,0.76
2023-01-20T19:05:34.759Z,0.74
2023-01-20T19:08:05.139Z,0.96
2023-01-20T19:10:34.764Z,1.03
2023-01-20T19:13:03.805Z,0.93
2023-01-20T19:15:33.786Z,0.92
2023-01-20T19:18:03.295Z,0.72
2023-01-20T19:20:33.953Z,0.70
2023-01-20T19:23:03.286Z,0.67
2023-01-20T19:25:32.669Z,0.73
2023-01-20T19:28:05.719Z,0.81
2023-01-20T19:30:35.258Z,0.73
2023-01-20T19:33:04.657Z,0.86
2023-01-20T19:35:35.607Z,0.77
2023-01-20T19:38:05.405Z,0.74
2023-01-20T19:40:35.569Z,0.68
2023-01-20T19:43:07.172Z,0.64
2023-01-20T19:45:45.859Z,0.70
2023-01-20T19:48:15.502Z,0.80
2023-01-20T19:50:47.042Z,0.75
2023-01-20T19:53:17.901Z,0.69
2023-01-20T19:55:47.574Z,0.71
2023-01-20T19:58:17.080Z,0.76
2023-01-20T20:00:46.627Z,0.96
2023-01-20T20:03:15.741Z,1.30
2023-01-20T20:05:46.476Z,1.11
2023-01-20T20:08:15.818Z,0.95
2023-01-20T20:10:45.504Z,1.01
2023-01-20T20:13:15.792Z,0.96
2023-01-20T20:15:45.425Z,1.08
2023-01-20T20:18:15.758Z,1.14
2023-01-20T20:20:47.605Z,1.11
2023-01-20T20:23:18.200Z,1.00
2023-01-20T20:25:52.137Z,1.02
2023-01-20T20:28:21.518Z,1.19
2023-01-20T20:30:51.151Z,0.99
2023-01-20T20:33:20.766Z,1.18
2023-01-20T20:35:51.507Z,1.05
2023-01-20T20:38:20.957Z,1.02
2023-01-20T20:40:50.077Z,0.96
2023-01-20T20:43:23.056Z,0.80
2023-01-20T20:45:53.066Z,0.89
2023-01-20T20:48:22.349Z,0.82
2023-01-20T20:50:53.346Z,0.84
2023-01-20T20:53:23.190Z,0.71
2023-01-20T20:55:55.379Z,0.75
2023-01-20T20:58:24.761Z,0.71
2023-01-20T21:00:53.943Z,0.53
2023-01-20T21:03:26.393Z,0.47
2023-01-20T21:05:57.903Z,0.68
2023-01-20T21:08:27.454Z,0.73
2023-01-20T21:11:01.063Z,0.66
2023-01-20T21:13:31.427Z,0.65
2023-01-20T21:16:03.791Z,0.78
2023-01-20T21:18:34.249Z,0.85
2023-01-20T21:21:08.705Z,0.74
2023-01-20T21:23:40.681Z,0.62
2023-01-20T21:26:14.121Z,0.61
2023-01-20T21:28:45.608Z,0.48
2023-01-20T21:31:17.225Z,0.53
2023-01-20T21:33:46.894Z,0.55
2023-01-20T21:36:17.680Z,0.48
2023-01-20T21:38:46.782Z,0.41
2023-01-20T21:41:18.380Z,0.56
2023-01-20T21:44:06.645Z,0.74
2023-01-20T21:46:39.615Z,0.66
2023-01-20T21:49:27.332Z,0.59
2023-01-20T21:52:17.668Z,0.47
2023-01-20T21:54:47.054Z,0.32
2023-01-20T21:57:16.497Z,0.52
2023-01-20T21:59:46.006Z,0.54
2023-01-20T22:02:16.403Z,0.52
2023-01-20T22:04:46.929Z,0.50
2023-01-20T22:07:17.627Z,0.27
2023-01-20T22:09:46.881Z,0.12
2023-01-20T22:12:16.501Z,0.14
2023-01-20T22:14:45.709Z,-0.01
2023-01-20T22:17:15.025Z,0.29
2023-01-20T22:19:44.624Z,0.34
2023-01-20T22:22:15.273Z,0.33
2023-01-20T22:24:45.984Z,0.28
2023-01-20T22:27:15.223Z,0.26
2023-01-20T22:29:44.433Z,0.17
2023-01-20T22:32:13.627Z,0.01
2023-01-20T22:34:43.357Z,0.18
2023-01-20T22:37:12.644Z,0.28
2023-01-20T22:39:43.642Z,0.45
2023-01-20T22:42:14.148Z,0.27
2023-01-20T22:44:43.251Z,0.45
2023-01-20T22:47:12.567Z,0.37
2023-01-20T22:49:41.817Z,0.40
2023-01-20T22:52:10.952Z,0.36
2023-01-20T22:54:40.160Z,0.24
2023-01-20T22:57:09.248Z,0.09
2023-01-20T22:59:39.781Z,0.14
2023-01-20T23:02:09.791Z,0.11
2023-01-20T23:04:39.038Z,0.30
2023-01-20T23:07:08.578Z,0.17
2023-01-20T23:09:37.707Z,0.21
2023-01-20T23:12:07.527Z,0.15
2023-01-20T23:14:54.358Z,0.17
2023-01-20T23:17:24.922Z,0.18
2023-01-20T23:19:54.575Z,0.06
2023-01-20T23:22:25.415Z,0.01
2023-01-20T23:24:54.515Z,0.06
2023-01-20T23:27:23.576Z,0.04
2023-01-20T23:29:53.040Z,-0.10
2023-01-20T23:32:27.690Z,-0.18
2023-01-20T23:34:56.974Z,-0.25
2023-01-20T23:37:32.082Z,-0.54
2023-01-20T23:40:01.847Z,-0.79
2023-01-20T23:42:36.845Z,-1.07
2023-01-20T23:45:08.007Z,-1.08
2023-01-20T23:47:38.623Z,-1.25
2023-01-20T23:50:09.198Z,-1.35
2023-01-20T23:52:38.320Z,-1.64
2023-01-20T23:55:10.951Z,-1.83
2023-01-20T23:57:43.135Z,-1.96
